Time;durP1;ratioP1;P1;durP2;ratioP2;P2;SDS_P1;SDS_P2;PMS_P1;PMS_P2;Temp;Humidity;BMP_temperature;BMP_pressure;BME280_temperature;BME280_humidity;BME280_pressure;Samples;Min_cycle;Max_cycle;Signal;HPM_P1;HPM_P2
2022/06/16 00:04:27;;;;;;;2.63;1.80;;;21.90;99.90;;;;;;10329318;28;20260;-82
2022/06/16 00:09:30;;;;;;;2.60;2.40;;;22.00;99.90;;;;;;10330656;28;20269;-82
2022/06/16 00:14:33;;;;;;;2.20;2.00;;;22.00;99.90;;;;;;10330901;28;20283;-82
2022/06/16 00:19:35;;;;;;;3.25;2.50;;;22.00;99.90;;;;;;10328675;28;20264;-82
2022/06/16 00:24:38;;;;;;;3.67;2.47;;;22.00;99.90;;;;;;10329173;28;20295;-82
2022/06/16 00:29:40;;;;;;;3.25;2.28;;;22.00;99.90;;;;;;10329793;28;20252;-82
2022/06/16 00:34:43;;;;;;;2.92;2.70;;;21.90;99.90;;;;;;10328102;28;20747;-82
2022/06/16 00:39:46;;;;;;;2.63;2.30;;;22.00;99.90;;;;;;10326595;28;20233;-82
2022/06/16 00:44:51;;;;;;;3.67;2.10;;;21.90;99.90;;;;;;10326947;28;20684;-82
2022/06/16 00:49:57;;;;;;;3.08;2.15;;;21.90;99.90;;;;;;10343690;28;20204;-82
2022/06/16 00:55:26;;;;;;;2.92;2.63;;;21.90;99.90;;;;;;10343753;28;20306;-83
2022/06/16 01:00:36;;;;;;;3.25;2.78;;;21.90;99.90;;;;;;10327299;28;20684;-82
2022/06/16 01:05:39;;;;;;;2.60;2.08;;;21.90;99.90;;;;;;10326397;28;20256;-82
2022/06/16 01:10:46;;;;;;;2.42;2.22;;;21.90;99.90;;;;;;10326742;28;20756;-82
2022/06/16 01:16:03;;;;;;;3.30;2.50;;;21.90;99.90;;;;;;10325841;28;20265;-82
2022/06/16 01:21:18;;;;;;;2.28;2.08;;;21.90;99.90;;;;;;10327409;28;20633;-82
2022/06/16 01:26:37;;;;;;;3.22;2.47;;;21.80;99.90;;;;;;10309392;28;20692;-82
2022/06/16 01:32:01;;;;;;;2.55;2.35;;;21.90;99.90;;;;;;10325543;28;20220;-82
2022/06/16 01:37:38;;;;;;;3.17;2.33;;;21.80;99.90;;;;;;10325695;28;20295;-81
2022/06/16 01:43:14;;;;;;;4.03;2.63;;;21.80;99.90;;;;;;10325783;28;20620;-82
2022/06/16 01:48:19;;;;;;;2.40;2.20;;;21.80;99.90;;;;;;10341916;28;20307;-82
2022/06/16 01:53:34;;;;;;;4.38;2.33;;;21.70;99.90;;;;;;10309619;28;20251;-82
2022/06/16 01:58:40;;;;;;;3.22;2.58;;;21.70;99.90;;;;;;10307296;28;20255;-82
2022/06/16 02:03:50;;;;;;;3.10;2.47;;;21.70;99.90;;;;;;10325145;28;20229;-82
2022/06/16 02:08:59;;;;;;;2.95;2.25;;;21.70;99.90;;;;;;10325289;28;20236;-82
2022/06/16 02:14:12;;;;;;;3.08;2.78;;;21.70;99.90;;;;;;10325387;28;20700;-82
2022/06/16 02:19:19;;;;;;;2.50;2.30;;;21.70;99.90;;;;;;10322503;28;20665;-82
2022/06/16 02:24:26;;;;;;;3.65;2.17;;;21.70;99.90;;;;;;10340361;28;20262;-82
2022/06/16 02:29:37;;;;;;;3.65;2.53;;;21.60;99.90;;;;;;10330199;28;20228;-82
2022/06/16 02:35:09;;;;;;;3.33;2.58;;;21.70;99.90;;;;;;10316817;28;20205;-82
2022/06/16 02:41:06;;;;;;;2.95;2.63;;;21.70;99.90;;;;;;10345357;28;20232;-82
2022/06/16 02:46:21;;;;;;;3.10;2.80;;;21.70;99.90;;;;;;10238850;29;20378;-82
2022/06/16 02:51:41;;;;;;;2.78;2.30;;;21.60;99.90;;;;;;10207297;29;20238;-83
2022/06/16 02:57:07;;;;;;;2.33;2.10;;;21.60;99.90;;;;;;10192458;29;20238;-82
2022/06/16 03:02:22;;;;;;;2.42;1.98;;;21.60;99.90;;;;;;10224321;29;20234;-82
2022/06/16 03:07:25;;;;;;;2.90;2.40;;;21.70;99.90;;;;;;10191853;29;20262;-83
2022/06/16 03:12:54;;;;;;;2.58;2.38;;;21.60;99.90;;;;;;10195723;29;20301;-82
2022/06/16 03:17:57;;;;;;;3.38;2.20;;;21.70;99.90;;;;;;10244831;28;20268;-82
2022/06/16 03:22:59;;;;;;;3.03;2.38;;;21.70;99.90;;;;;;10329911;28;20232;-82
2022/06/16 03:28:04;;;;;;;3.15;2.38;;;21.80;99.90;;;;;;10330343;28;20638;-83
2022/06/16 03:33:10;;;;;;;2.85;2.50;;;21.80;99.90;;;;;;10330338;28;20608;-82
2022/06/16 03:43:27;;;;;;;2.45;2.25;;;21.80;99.90;;;;;;10329505;28;20209;-82
2022/06/16 03:48:37;;;;;;;2.50;2.25;;;21.80;99.90;;;;;;10329324;28;20317;-82
2022/06/16 03:53:40;;;;;;;3.05;2.42;;;21.80;99.90;;;;;;10330360;28;20225;-81
2022/06/16 03:58:43;;;;;;;2.75;2.55;;;21.80;99.90;;;;;;10329823;28;20569;-81
2022/06/16 04:03:59;;;;;;;3.22;2.30;;;21.80;99.90;;;;;;10328078;28;20232;-81
2022/06/16 04:09:14;;;;;;;2.78;2.28;;;21.80;99.90;;;;;;10328802;28;20208;-82
2022/06/16 04:14:18;;;;;;;3.30;2.20;;;21.80;99.90;;;;;;10327149;28;20244;-82
2022/06/16 04:20:11;;;;;;;2.35;2.00;;;21.80;99.90;;;;;;10326668;28;20648;-82
2022/06/16 04:25:01;;;;;;;2.67;2.42;;;21.80;99.90;;;;;;10327773;28;20252;-82
2022/06/16 04:30:07;;;;;;;2.08;1.98;;;21.80;99.90;;;;;;10328163;28;20620;-82
2022/06/16 04:35:11;;;;;;;3.15;2.72;;;21.80;99.90;;;;;;10336039;28;20233;-82
2022/06/16 04:40:32;;;;;;;2.60;2.40;;;21.80;99.90;;;;;;10345855;28;20248;-81
2022/06/16 04:45:43;;;;;;;2.83;2.42;;;21.80;99.90;;;;;;10326710;28;20252;-81
2022/06/16 04:50:47;;;;;;;2.58;2.38;;;21.80;99.90;;;;;;10325847;28;20256;-82
2022/06/16 04:55:56;;;;;;;3.50;2.60;;;21.90;99.90;;;;;;10325441;28;20245;-81
2022/06/16 05:01:15;;;;;;;3.67;2.50;;;21.90;99.90;;;;;;10328068;28;20626;-81
2022/06/16 05:06:30;;;;;;;3.17;2.28;;;21.90;99.90;;;;;;10326341;28;20291;-82
2022/06/16 05:11:48;;;;;;;3.08;2.75;;;21.90;99.90;;;;;;10326623;28;20231;-82
2022/06/16 05:17:10;;;;;;;2.67;2.47;;;21.90;99.90;;;;;;10335926;28;20259;-82
2022/06/16 05:22:33;;;;;;;3.08;2.55;;;22.00;99.90;;;;;;10335969;28;20243;-82
2022/06/16 05:27:58;;;;;;;3.20;2.90;;;22.00;99.90;;;;;;10321944;28;20652;-82
2022/06/16 05:33:35;;;;;;;2.67;2.45;;;22.10;99.90;;;;;;10313958;28;20236;-82
2022/06/16 05:39:04;;;;;;;2.33;2.13;;;22.20;99.90;;;;;;10325837;28;20760;-82
2022/06/16 05:44:16;;;;;;;2.50;2.30;;;22.30;99.90;;;;;;10325249;28;20201;-82
2022/06/16 05:49:26;;;;;;;2.42;2.20;;;22.30;99.90;;;;;;10325475;28;20255;-82
2022/06/16 05:54:34;;;;;;;2.38;2.17;;;22.30;99.90;;;;;;10325622;28;20240;-82
2022/06/16 05:59:38;;;;;;;2.50;2.30;;;22.30;99.90;;;;;;10325148;28;20236;-82
2022/06/16 06:04:42;;;;;;;2.60;2.40;;;22.20;99.90;;;;;;10342541;28;20247;-82
2022/06/16 06:20:53;;;;;;;2.17;2.03;;;22.40;99.90;;;;;;10370238;28;20259;-83
2022/06/16 06:25:56;;;;;;;8.43;2.53;;;22.30;99.90;;;;;;10332475;28;20318;-83
2022/06/16 06:30:59;;;;;;;2.45;2.25;;;22.40;99.90;;;;;;10316339;28;20925;-82
2022/06/16 06:36:02;;;;;;;3.20;2.42;;;22.50;99.90;;;;;;10316286;28;20591;-82
2022/06/16 06:41:07;;;;;;;2.22;2.03;;;22.60;99.90;;;;;;10331086;28;20272;-82
2022/06/16 06:46:10;;;;;;;2.75;2.55;;;22.60;99.90;;;;;;10334187;28;20305;-82
2022/06/16 06:51:13;;;;;;;3.95;2.47;;;22.60;99.90;;;;;;10351737;28;20279;-81
2022/06/16 06:56:16;;;;;;;2.97;2.55;;;22.60;99.90;;;;;;10334141;28;20217;-82
2022/06/16 07:01:19;;;;;;;3.85;3.08;;;22.60;99.90;;;;;;10347000;28;20225;-82
2022/06/16 07:06:22;;;;;;;3.50;2.53;;;22.60;99.90;;;;;;10332516;28;20327;-82
2022/06/16 07:11:25;;;;;;;2.50;2.30;;;22.70;99.90;;;;;;10330449;28;20233;-83
2022/06/16 07:16:27;;;;;;;2.50;2.30;;;22.70;99.90;;;;;;10336301;28;20256;-82
2022/06/16 07:21:30;;;;;;;3.22;2.72;;;22.70;99.90;;;;;;10330943;28;20237;-82
2022/06/16 07:26:33;;;;;;;3.38;2.65;;;22.70;99.90;;;;;;10332378;28;20307;-82
2022/06/16 07:31:35;;;;;;;9.35;6.03;;;22.80;99.90;;;;;;10330992;28;20224;-83
2022/06/16 07:36:38;;;;;;;3.45;3.15;;;22.70;99.90;;;;;;10326555;28;20622;-83
2022/06/16 07:41:40;;;;;;;3.63;3.33;;;22.70;99.90;;;;;;10331605;28;20268;-82
2022/06/16 07:46:46;;;;;;;9.68;6.40;;;22.80;99.90;;;;;;10305636;28;20245;-83
2022/06/16 07:51:50;;;;;;;2.67;2.47;;;21.40;99.90;;;;;;10327322;28;20204;-83
2022/06/16 07:56:53;;;;;;;3.90;3.42;;;21.30;99.90;;;;;;10329203;28;20236;-81
2022/06/16 08:01:56;;;;;;;3.92;3.60;;;21.90;99.90;;;;;;10333584;28;20229;-83
2022/06/16 08:07:00;;;;;;;4.68;3.22;;;22.30;99.90;;;;;;10349554;28;20256;-84
2022/06/16 08:12:04;;;;;;;6.53;3.50;;;22.60;99.90;;;;;;10330626;28;20224;-83
2022/06/16 08:17:13;;;;;;;4.45;3.92;;;22.70;99.90;;;;;;10329669;28;20260;-81
2022/06/16 08:22:16;;;;;;;8.70;3.95;;;22.20;99.90;;;;;;10328817;28;20240;-81
2022/06/16 08:27:23;;;;;;;8.68;5.60;;;22.60;99.90;;;;;;10344055;28;20249;-81
2022/06/16 08:32:26;;;;;;;7.53;3.78;;;22.70;99.90;;;;;;10328352;28;20656;-81
2022/06/16 08:37:28;;;;;;;3.80;3.33;;;23.00;99.90;;;;;;10306471;28;20689;-82
2022/06/16 08:42:50;;;;;;;10.75;5.40;;;23.10;99.90;;;;;;10309760;28;20244;-81
2022/06/16 08:48:07;;;;;;;5.85;3.78;;;23.30;99.90;;;;;;10318811;28;20299;-82
2022/06/16 08:53:28;;;;;;;7.78;4.45;;;23.40;99.90;;;;;;10330622;28;20252;-88
2022/06/16 08:58:44;;;;;;;4.88;3.95;;;23.50;99.90;;;;;;10324364;28;20209;-93
2022/06/16 09:04:06;;;;;;;4.70;3.85;;;23.80;99.90;;;;;;10330100;28;20209;-93
2022/06/16 09:10:14;;;;;;;6.18;4.43;;;23.90;99.90;;;;;;10336521;28;20217;-93
2022/06/16 09:15:11;;;;;;;5.30;4.40;;;24.00;99.90;;;;;;10335456;28;20625;-95
2022/06/16 09:20:21;;;;;;;9.20;3.78;;;24.10;99.90;;;;;;10334118;28;20555;-93
2022/06/16 09:25:36;;;;;;;8.15;4.25;;;24.00;99.20;;;;;;10333965;28;20632;-94
2022/06/16 09:30:48;;;;;;;6.80;4.15;;;24.00;99.50;;;;;;10333655;28;20613;-95
2022/06/16 09:36:03;;;;;;;6.65;4.03;;;24.10;99.40;;;;;;10331681;28;20228;-96
2022/06/16 09:46:59;;;;;;;4.45;4.05;;;24.00;98.70;;;;;;10332716;28;20220;-93
2022/06/16 09:52:11;;;;;;;4.28;3.80;;;24.00;97.30;;;;;;10333876;28;20217;-94
2022/06/16 09:57:25;;;;;;;6.43;3.75;;;24.30;97.60;;;;;;10331237;28;20197;-93
2022/06/16 10:02:38;;;;;;;6.45;4.28;;;24.30;98.30;;;;;;10332785;28;20193;-93
2022/06/16 10:07:54;;;;;;;8.18;3.25;;;24.20;97.00;;;;;;10333955;28;20225;-93
2022/06/16 10:13:06;;;;;;;4.25;3.40;;;24.40;95.70;;;;;;10347151;28;20185;-95
2022/06/16 10:18:10;;;;;;;4.13;3.50;;;25.00;96.70;;;;;;10395393;28;20221;-94
2022/06/16 10:23:34;;;;;;;3.50;2.60;;;25.30;93.70;;;;;;10379786;28;20235;-95
2022/06/16 10:28:43;;;;;;;3.03;2.83;;;25.20;93.10;;;;;;10379297;28;20252;-94
2022/06/16 10:33:55;;;;;;;3.38;2.95;;;24.70;93.40;;;;;;10378577;28;20204;-94
2022/06/16 10:39:22;;;;;;;3.15;2.63;;;24.90;89.10;;;;;;10362375;28;20213;-95
2022/06/16 10:44:28;;;;;;;4.78;2.65;;;25.30;90.70;;;;;;10363821;28;20189;-93
2022/06/16 10:49:37;;;;;;;6.82;3.60;;;25.80;88.50;;;;;;10382181;28;20209;-94
2022/06/16 10:55:09;;;;;;;5.40;3.88;;;25.60;92.40;;;;;;10387295;28;20201;-94
2022/06/16 11:00:22;;;;;;;4.70;3.53;;;25.40;87.80;;;;;;10381936;28;20185;-93
2022/06/16 11:05:28;;;;;;;4.82;3.20;;;25.50;88.20;;;;;;10386320;28;20181;-93
2022/06/16 11:10:35;;;;;;;8.23;2.65;;;25.20;93.30;;;;;;10369986;28;20188;-96
2022/06/16 11:15:48;;;;;;;5.65;3.20;;;24.70;93.10;;;;;;10370661;28;20237;-95
2022/06/16 11:20:55;;;;;;;5.25;3.45;;;25.00;91.20;;;;;;10370474;28;20193;-96
2022/06/16 11:26:16;;;;;;;6.50;3.30;;;25.00;90.40;;;;;;10345995;28;20228;-94
2022/06/16 11:31:22;;;;;;;4.22;3.38;;;25.00;88.10;;;;;;10356160;28;20206;-95
2022/06/16 11:37:00;;;;;;;6.78;3.40;;;25.30;91.80;;;;;;10348211;28;20208;-94
2022/06/16 11:42:07;;;;;;;3.75;3.45;;;25.00;89.00;;;;;;10327477;28;20232;-95
2022/06/16 11:47:25;;;;;;;4.97;3.88;;;24.80;92.90;;;;;;10325433;28;20213;-94
2022/06/16 11:52:52;;;;;;;4.47;3.53;;;24.70;92.10;;;;;;10341347;28;20247;-95
2022/06/16 11:57:54;;;;;;;3.95;3.65;;;24.70;91.30;;;;;;10341342;28;20236;-95
2022/06/16 12:03:09;;;;;;;2.95;2.65;;;24.80;92.80;;;;;;10339930;28;20201;-94
2022/06/16 12:08:45;;;;;;;4.07;2.92;;;25.20;84.60;;;;;;10345740;28;20232;-95
2022/06/16 12:13:57;;;;;;;6.38;3.22;;;25.20;86.80;;;;;;10345880;28;20205;-95
2022/06/16 12:19:08;;;;;;;4.32;3.72;;;24.80;91.20;;;;;;10348296;28;20233;-95
2022/06/16 12:24:53;;;;;;;3.70;3.40;;;24.50;91.60;;;;;;10344854;28;20204;-95
2022/06/16 12:30:24;;;;;;;4.38;3.97;;;24.70;91.60;;;;;;10249584;28;20280;-96
2022/06/16 12:35:33;;;;;;;6.30;3.75;;;24.50;92.60;;;;;;10278093;28;20206;-96
2022/06/16 12:40:43;;;;;;;5.85;3.53;;;24.40;92.30;;;;;;10263528;28;20226;-95
2022/06/16 12:45:53;;;;;;;3.78;3.47;;;24.30;92.50;;;;;;10270868;28;20599;-96
2022/06/16 12:50:59;;;;;;;5.07;4.35;;;24.20;92.20;;;;;;10278042;28;20198;-95
2022/06/16 12:56:08;;;;;;;8.40;4.00;;;23.90;94.00;;;;;;10285344;28;20219;-96
2022/06/16 13:01:13;;;;;;;4.35;3.75;;;23.70;93.00;;;;;;10275391;28;20257;-96
2022/06/16 13:06:19;;;;;;;4.15;3.70;;;24.00;94.40;;;;;;10281345;28;20206;-95
2022/06/16 13:11:32;;;;;;;4.22;3.92;;;24.20;94.00;;;;;;10340359;28;20205;-96
2022/06/16 13:16:40;;;;;;;7.50;3.75;;;24.20;94.40;;;;;;10352953;28;20256;-96
2022/06/16 13:21:57;;;;;;;4.20;3.80;;;23.70;92.60;;;;;;10355064;28;20340;-96
2022/06/16 13:27:07;;;;;;;4.53;4.10;;;23.70;95.50;;;;;;10345227;28;20729;-95
2022/06/16 13:32:48;;;;;;;6.10;3.80;;;24.00;93.40;;;;;;10336385;28;20873;-96
2022/06/16 13:38:11;;;;;;;4.10;3.38;;;24.10;92.10;;;;;;10328090;28;20209;-96
2022/06/16 13:43:16;;;;;;;5.28;3.60;;;24.20;93.40;;;;;;10331148;28;20205;-96
2022/06/16 13:48:49;;;;;;;4.60;4.20;;;24.40;92.80;;;;;;10332642;28;20244;-95
2022/06/16 13:53:59;;;;;;;5.50;3.25;;;24.20;94.00;;;;;;10330425;28;20197;-95
2022/06/16 13:59:10;;;;;;;5.60;4.20;;;24.00;91.80;;;;;;9979082;28;10000455;-95
2022/06/16 14:04:16;;;;;;;5.65;3.15;;;24.10;93.60;;;;;;10345222;28;20213;-95
2022/06/16 14:09:27;;;;;;;3.15;2.83;;;24.00;87.60;;;;;;10349007;28;20233;-94
2022/06/16 14:14:55;;;;;;;5.30;4.18;;;24.20;86.00;;;;;;10332565;28;20205;-96
2022/06/16 14:20:05;;;;;;;4.50;4.10;;;24.20;93.10;;;;;;10341655;28;20279;-95
2022/06/16 14:25:37;;;;;;;3.28;3.03;;;24.00;93.70;;;;;;10345888;28;20259;-94
2022/06/16 14:30:47;;;;;;;4.07;3.72;;;24.00;92.00;;;;;;10326416;28;20232;-94
2022/06/16 14:36:03;;;;;;;4.30;3.92;;;23.80;91.70;;;;;;10342074;28;20580;-94
2022/06/16 14:41:27;;;;;;;5.20;3.78;;;24.00;92.20;;;;;;10323066;28;20217;-94
2022/06/16 14:46:44;;;;;;;4.47;3.45;;;23.80;94.00;;;;;;10339838;28;20213;-93
2022/06/16 14:51:48;;;;;;;5.47;3.53;;;24.00;93.90;;;;;;10340264;28;20209;-95
2022/06/16 14:56:56;;;;;;;5.57;3.63;;;23.90;93.00;;;;;;10339482;28;20666;-92
2022/06/16 15:02:01;;;;;;;4.90;2.85;;;23.80;92.60;;;;;;10344057;28;20569;-94
2022/06/16 15:07:04;;;;;;;3.63;3.30;;;23.80;93.50;;;;;;10339050;28;20268;-94
2022/06/16 15:12:09;;;;;;;3.17;2.97;;;23.70;92.60;;;;;;10355293;28;20558;-94
2022/06/16 15:22:53;;;;;;;4.15;3.75;;;23.80;93.20;;;;;;10336204;28;20275;-94
2022/06/16 15:27:58;;;;;;;4.20;3.40;;;23.70;89.10;;;;;;10335910;28;20279;-94
2022/06/16 15:38:46;;;;;;;7.40;4.55;;;23.60;91.90;;;;;;10337310;28;20205;-94
2022/06/16 15:43:52;;;;;;;3.38;3.05;;;23.50;92.90;;;;;;10336300;28;20269;-93
2022/06/16 15:48:57;;;;;;;4.07;3.38;;;23.60;93.60;;;;;;10319043;28;20225;-95
2022/06/16 15:54:02;;;;;;;4.07;3.70;;;23.70;91.00;;;;;;10346972;28;20201;-96
2022/06/16 15:59:10;;;;;;;4.05;3.75;;;23.60;93.50;;;;;;10341031;28;20217;-93
2022/06/16 16:04:14;;;;;;;3.83;3.53;;;23.60;92.40;;;;;;10351806;28;20614;-94
2022/06/16 16:09:20;;;;;;;3.65;3.15;;;23.60;92.60;;;;;;10334323;28;20217;-95
2022/06/16 16:14:23;;;;;;;3.97;3.67;;;23.60;92.90;;;;;;10333989;28;20201;-95
2022/06/16 16:19:26;;;;;;;3.45;2.90;;;23.70;93.60;;;;;;10334246;28;20228;-95
2022/06/16 16:24:39;;;;;;;4.65;3.22;;;23.70;91.10;;;;;;10348422;28;20259;-95
2022/06/16 16:29:55;;;;;;;3.72;3.42;;;23.70;93.50;;;;;;10331392;28;20217;-94
2022/06/16 16:34:59;;;;;;;3.45;2.97;;;23.80;88.20;;;;;;10333034;28;20208;-94
2022/06/16 16:43:00;;;;;;;4.38;2.88;;;23.70;88.10;;;;;;10332568;28;20263;-91
2022/06/16 16:45:49;;;;;;;3.38;3.13;;;23.90;92.40;;;;;;10331634;28;20209;-94
2022/06/16 16:50:54;;;;;;;3.63;3.05;;;23.90;92.30;;;;;;10331404;28;20256;-94
2022/06/16 16:56:20;;;;;;;4.43;3.83;;;23.70;93.00;;;;;;10362738;28;20208;-95
2022/06/16 17:01:25;;;;;;;4.32;3.60;;;23.50;91.70;;;;;;10359712;28;20201;-95
2022/06/16 17:06:28;;;;;;;4.57;4.03;;;23.20;90.90;;;;;;10336922;28;20240;-94
2022/06/16 17:11:52;;;;;;;3.75;3.35;;;23.40;94.00;;;;;;10330854;28;20232;-96
2022/06/16 17:16:56;;;;;;;3.80;3.30;;;23.40;93.70;;;;;;10332892;28;20232;-94
2022/06/16 17:22:01;;;;;;;4.25;3.72;;;23.20;93.10;;;;;;10332633;28;20260;-93
2022/06/16 17:27:07;;;;;;;4.60;4.13;;;23.20;93.80;;;;;;10343219;28;20235;-93
2022/06/16 17:32:16;;;;;;;3.60;2.75;;;23.00;94.80;;;;;;10363492;28;20304;-93
2022/06/16 17:37:30;;;;;;;4.97;4.47;;;22.90;92.80;;;;;;10332511;28;20248;-94
2022/06/16 17:42:32;;;;;;;3.92;3.50;;;22.90;92.60;;;;;;10315190;28;20201;-95
2022/06/16 17:47:35;;;;;;;4.85;2.90;;;22.90;95.20;;;;;;10315062;28;20240;-94
2022/06/16 18:03:20;;;;;;;3.80;3.38;;;22.80;95.20;;;;;;10365550;28;20348;-94
2022/06/16 18:08:31;;;;;;;3.80;2.72;;;22.80;95.70;;;;;;10359402;28;20690;-94
2022/06/16 18:13:41;;;;;;;4.13;3.28;;;22.60;95.10;;;;;;10347004;28;20201;-95
2022/06/16 18:18:44;;;;;;;2.45;1.65;;;22.40;95.50;;;;;;10341267;28;20228;-94
2022/06/16 18:23:48;;;;;;;1.70;1.33;;;22.00;91.70;;;;;;10341368;28;20220;-95
2022/06/16 18:29:02;;;;;;;2.75;2.55;;;21.80;93.80;;;;;;10338196;28;20228;-94
2022/06/16 18:34:05;;;;;;;3.55;3.25;;;21.50;97.50;;;;;;10334930;28;20803;-94
2022/06/16 18:39:09;;;;;;;2.97;2.78;;;21.80;95.40;;;;;;10335131;28;20595;-95
2022/06/16 18:44:13;;;;;;;2.85;1.30;;;21.70;98.00;;;;;;10335786;28;20690;-94
2022/06/16 18:49:16;;;;;;;2.97;2.72;;;21.70;94.10;;;;;;10320587;28;20251;-96
2022/06/16 18:54:20;;;;;;;5.20;2.33;;;21.80;96.90;;;;;;10335300;28;20259;-95
2022/06/16 18:59:23;;;;;;;3.63;3.33;;;21.30;98.30;;;;;;10350181;28;20228;-93
2022/06/16 19:04:27;;;;;;;4.15;3.85;;;21.30;95.60;;;;;;9653777;28;10000634;-95
2022/06/16 19:09:43;;;;;;;3.90;3.65;;;21.40;99.20;;;;;;10325568;28;20217;-94
2022/06/16 19:14:46;;;;;;;3.78;3.53;;;21.40;99.60;;;;;;10349536;28;20249;-94
2022/06/16 19:19:53;;;;;;;3.67;3.30;;;21.50;99.60;;;;;;10360114;28;20247;-95
2022/06/16 19:24:56;;;;;;;4.18;3.60;;;21.50;99.40;;;;;;10372816;28;20209;-93
2022/06/16 19:30:00;;;;;;;3.63;3.33;;;21.50;99.50;;;;;;10367863;28;20271;-95
2022/06/16 19:35:03;;;;;;;3.03;2.65;;;21.50;99.50;;;;;;10345792;28;20203;-95
2022/06/16 19:40:07;;;;;;;3.65;3.35;;;21.30;98.90;;;;;;10342246;28;20570;-94
2022/06/16 19:50:50;;;;;;;3.13;2.22;;;20.90;99.00;;;;;;10338575;28;20579;-93
2022/06/16 19:55:54;;;;;;;3.70;3.22;;;20.90;96.40;;;;;;10321969;28;20255;-94
2022/06/16 20:00:58;;;;;;;3.90;3.58;;;20.80;99.90;;;;;;10340831;28;20578;-95
2022/06/16 20:06:05;;;;;;;3.83;3.53;;;20.80;99.90;;;;;;10335410;28;20256;-93
2022/06/16 20:11:08;;;;;;;4.20;1.45;;;20.90;99.90;;;;;;10335286;28;20224;-93
2022/06/16 20:16:11;;;;;;;3.00;2.80;;;20.70;97.40;;;;;;10334514;28;20221;-93
2022/06/16 20:21:20;;;;;;;3.40;3.17;;;21.10;99.90;;;;;;10334867;28;20635;-96
2022/06/16 20:26:22;;;;;;;5.22;1.60;;;21.30;99.90;;;;;;10334686;28;20209;-94
2022/06/16 20:31:26;;;;;;;2.90;2.60;;;21.00;97.00;;;;;;10334727;28;20845;-95
2022/06/16 20:36:29;;;;;;;2.97;2.70;;;21.10;99.90;;;;;;10334573;28;20201;-95
2022/06/16 20:46:59;;;;;;;2.85;2.65;;;21.00;99.40;;;;;;10350066;28;20261;-94
2022/06/16 20:52:06;;;;;;;2.67;2.38;;;21.10;99.90;;;;;;10316307;28;20291;-95
2022/06/16 21:02:34;;;;;;;3.00;2.80;;;20.80;99.90;;;;;;10332209;28;20768;-93
2022/06/16 21:07:37;;;;;;;3.28;2.97;;;21.20;99.90;;;;;;10315997;28;20663;-94
2022/06/16 21:12:44;;;;;;;3.40;3.10;;;21.20;99.90;;;;;;10331586;28;20283;-94
2022/06/16 21:17:48;;;;;;;4.03;3.13;;;21.20;99.90;;;;;;10332269;28;20785;-93
2022/06/16 21:22:51;;;;;;;3.30;2.67;;;21.20;99.90;;;;;;10329980;28;20678;-93
2022/06/16 21:27:54;;;;;;;3.13;2.83;;;21.20;99.90;;;;;;10331748;28;20554;-94
2022/06/16 21:33:01;;;;;;;3.17;2.97;;;21.20;99.90;;;;;;10329261;28;20205;-93
2022/06/16 21:38:06;;;;;;;2.83;2.63;;;21.20;99.90;;;;;;10290218;28;20209;-93
2022/06/16 21:43:11;;;;;;;3.72;2.97;;;21.20;99.90;;;;;;10292884;28;20241;-95
2022/06/16 21:48:18;;;;;;;2.78;2.58;;;21.20;99.90;;;;;;10297201;28;20224;-95
2022/06/16 21:53:21;;;;;;;3.92;3.03;;;21.10;99.90;;;;;;10334767;28;20201;-94
2022/06/16 21:58:24;;;;;;;3.22;3.00;;;21.20;99.90;;;;;;10322978;28;20204;-95
2022/06/16 22:03:30;;;;;;;2.97;2.70;;;21.10;99.90;;;;;;10333467;28;20345;-94
2022/06/16 22:08:33;;;;;;;2.95;2.75;;;21.10;99.90;;;;;;10322097;28;20224;-95
2022/06/16 22:13:36;;;;;;;2.55;2.35;;;21.10;99.90;;;;;;10325430;28;20231;-94
2022/06/16 22:18:41;;;;;;;2.85;2.65;;;21.10;99.90;;;;;;10352198;28;20259;-93
2022/06/16 22:23:44;;;;;;;3.60;2.78;;;21.10;99.90;;;;;;10353567;28;20213;-95
2022/06/16 22:28:53;;;;;;;2.70;2.50;;;21.00;99.90;;;;;;10333493;28;20213;-94
2022/06/16 22:33:57;;;;;;;4.85;2.58;;;21.00;99.90;;;;;;10331208;28;20256;-94
2022/06/16 22:39:00;;;;;;;3.10;2.90;;;21.00;99.90;;;;;;10330818;28;20677;-94
2022/06/16 22:44:04;;;;;;;3.55;3.08;;;21.00;99.90;;;;;;10333284;28;20205;-94
2022/06/16 22:49:15;;;;;;;2.90;2.70;;;21.00;99.90;;;;;;10339175;28;20279;-93
2022/06/16 22:59:40;;;;;;;2.58;2.38;;;21.00;99.90;;;;;;10340232;28;20236;-95
2022/06/16 23:04:42;;;;;;;2.67;2.47;;;21.00;99.90;;;;;;10324700;28;20209;-95
2022/06/16 23:09:45;;;;;;;5.22;2.33;;;21.00;99.90;;;;;;10338386;28;20249;-96
2022/06/16 23:14:48;;;;;;;3.08;2.78;;;20.90;99.90;;;;;;10322148;28;20275;-93
2022/06/16 23:19:51;;;;;;;3.30;3.00;;;20.90;99.90;;;;;;10338259;28;20619;-96
2022/06/16 23:24:54;;;;;;;2.72;2.47;;;20.90;99.90;;;;;;10322457;28;20213;-95
2022/06/16 23:29:56;;;;;;;2.97;2.72;;;20.90;99.90;;;;;;10336282;28;20233;-95
2022/06/16 23:35:00;;;;;;;4.45;2.67;;;20.90;99.90;;;;;;10300150;28;20206;-95
2022/06/16 23:40:08;;;;;;;2.60;2.40;;;20.90;99.90;;;;;;10317195;28;20230;-95
2022/06/16 23:45:12;;;;;;;2.72;2.40;;;20.90;99.90;;;;;;10336194;28;20206;-94
2022/06/16 23:50:14;;;;;;;2.25;2.05;;;20.90;99.90;;;;;;10336090;28;20221;-95
2022/06/16 23:55:17;;;;;;;2.67;2.47;;;20.80;99.90;;;;;;10334608;28;20589;-95
